sensor_id;sensor_type;location;lat;lon;timestamp;P1;durP1;ratioP1;P2;durP2;ratioP2
64199;SDS011;50516;52.272;5.136;2022-12-07T00:00:48;7.28;;;4.22;;
64199;SDS011;50516;52.272;5.136;2022-12-07T00:03:14;8.65;;;4.90;;
64199;SDS011;50516;52.272;5.136;2022-12-07T00:05:39;12.75;;;5.30;;
64199;SDS011;50516;52.272;5.136;2022-12-07T00:08:05;8.38;;;5.43;;
64199;SDS011;50516;52.272;5.136;2022-12-07T00:10:30;20.08;;;6.07;;
64199;SDS011;50516;52.272;5.136;2022-12-07T00:12:58;9.68;;;5.30;;
64199;SDS011;50516;52.272;5.136;2022-12-07T00:15:24;12.02;;;5.30;;
64199;SDS011;50516;52.272;5.136;2022-12-07T00:17:49;9.70;;;4.93;;
64199;SDS011;50516;52.272;5.136;2022-12-07T00:20:14;9.13;;;4.53;;
64199;SDS011;50516;52.272;5.136;2022-12-07T00:22:40;8.85;;;4.72;;
64199;SDS011;50516;52.272;5.136;2022-12-07T00:25:05;9.80;;;4.88;;
64199;SDS011;50516;52.272;5.136;2022-12-07T00:27:31;9.20;;;4.60;;
64199;SDS011;50516;52.272;5.136;2022-12-07T00:29:56;11.60;;;4.97;;
64199;SDS011;50516;52.272;5.136;2022-12-07T00:32:22;9.38;;;4.55;;
64199;SDS011;50516;52.272;5.136;2022-12-07T00:34:47;7.97;;;4.30;;
64199;SDS011;50516;52.272;5.136;2022-12-07T00:37:12;16.17;;;6.55;;
64199;SDS011;50516;52.272;5.136;2022-12-07T00:39:38;8.07;;;4.63;;
64199;SDS011;50516;52.272;5.136;2022-12-07T00:42:03;8.57;;;4.95;;
64199;SDS011;50516;52.272;5.136;2022-12-07T00:44:29;11.48;;;5.25;;
64199;SDS011;50516;52.272;5.136;2022-12-07T00:46:54;7.80;;;4.70;;
64199;SDS011;50516;52.272;5.136;2022-12-07T00:49:20;8.00;;;4.40;;
64199;SDS011;50516;52.272;5.136;2022-12-07T00:51:47;10.60;;;5.30;;
64199;SDS011;50516;52.272;5.136;2022-12-07T00:54:14;11.80;;;4.50;;
64199;SDS011;50516;52.272;5.136;2022-12-07T00:56:39;8.18;;;4.28;;
64199;SDS011;50516;52.272;5.136;2022-12-07T00:59:05;7.15;;;4.28;;
64199;SDS011;50516;52.272;5.136;2022-12-07T01:01:31;9.40;;;4.57;;
64199;SDS011;50516;52.272;5.136;2022-12-07T01:03:58;7.80;;;4.30;;
64199;SDS011;50516;52.272;5.136;2022-12-07T01:06:26;9.05;;;4.65;;
64199;SDS011;50516;52.272;5.136;2022-12-07T01:08:51;7.22;;;4.07;;
64199;SDS011;50516;52.272;5.136;2022-12-07T01:11:18;9.38;;;4.28;;
64199;SDS011;50516;52.272;5.136;2022-12-07T01:13:46;6.53;;;4.38;;
64199;SDS011;50516;52.272;5.136;2022-12-07T01:16:15;9.95;;;4.70;;
64199;SDS011;50516;52.272;5.136;2022-12-07T01:18:41;9.38;;;4.55;;
64199;SDS011;50516;52.272;5.136;2022-12-07T01:21:09;9.77;;;4.57;;
64199;SDS011;50516;52.272;5.136;2022-12-07T01:23:37;9.30;;;4.88;;
64199;SDS011;50516;52.272;5.136;2022-12-07T01:26:05;13.05;;;6.25;;
64199;SDS011;50516;52.272;5.136;2022-12-07T01:28:32;8.48;;;4.03;;
64199;SDS011;50516;52.272;5.136;2022-12-07T01:31:03;8.90;;;5.55;;
64199;SDS011;50516;52.272;5.136;2022-12-07T01:33:31;9.32;;;4.78;;
64199;SDS011;50516;52.272;5.136;2022-12-07T01:36:07;8.20;;;4.68;;
64199;SDS011;50516;52.272;5.136;2022-12-07T01:38:37;6.63;;;3.67;;
64199;SDS011;50516;52.272;5.136;2022-12-07T01:41:02;7.93;;;3.80;;
64199;SDS011;50516;52.272;5.136;2022-12-07T01:43:29;9.40;;;3.60;;
64199;SDS011;50516;52.272;5.136;2022-12-07T01:45:55;6.60;;;3.20;;
64199;SDS011;50516;52.272;5.136;2022-12-07T01:48:23;7.50;;;3.63;;
64199;SDS011;50516;52.272;5.136;2022-12-07T01:50:51;10.93;;;3.53;;
64199;SDS011;50516;52.272;5.136;2022-12-07T01:53:19;7.18;;;2.70;;
64199;SDS011;50516;52.272;5.136;2022-12-07T01:55:47;5.93;;;3.00;;
64199;SDS011;50516;52.272;5.136;2022-12-07T01:58:16;6.57;;;3.33;;
64199;SDS011;50516;52.272;5.136;2022-12-07T02:00:42;11.30;;;2.97;;
64199;SDS011;50516;52.272;5.136;2022-12-07T02:03:09;8.95;;;3.25;;
64199;SDS011;50516;52.272;5.136;2022-12-07T02:05:40;7.50;;;3.45;;
64199;SDS011;50516;52.272;5.136;2022-12-07T02:08:06;7.43;;;2.80;;
64199;SDS011;50516;52.272;5.136;2022-12-07T02:10:33;6.85;;;2.85;;
64199;SDS011;50516;52.272;5.136;2022-12-07T02:13:00;6.30;;;3.60;;
64199;SDS011;50516;52.272;5.136;2022-12-07T02:15:36;6.28;;;2.83;;
64199;SDS011;50516;52.272;5.136;2022-12-07T02:18:14;5.57;;;2.88;;
64199;SDS011;50516;52.272;5.136;2022-12-07T02:29:16;10.85;;;4.70;;
64199;SDS011;50516;52.272;5.136;2022-12-07T02:31:48;9.15;;;3.65;;
64199;SDS011;50516;52.272;5.136;2022-12-07T02:34:24;7.18;;;3.47;;
64199;SDS011;50516;52.272;5.136;2022-12-07T02:36:56;13.52;;;3.97;;
64199;SDS011;50516;52.272;5.136;2022-12-07T02:42:16;7.22;;;3.60;;
64199;SDS011;50516;52.272;5.136;2022-12-07T02:44:44;14.80;;;5.90;;
64199;SDS011;50516;52.272;5.136;2022-12-07T02:47:12;14.38;;;6.07;;
64199;SDS011;50516;52.272;5.136;2022-12-07T02:49:40;12.35;;;5.32;;
64199;SDS011;50516;52.272;5.136;2022-12-07T02:52:07;12.02;;;4.55;;
64199;SDS011;50516;52.272;5.136;2022-12-07T02:54:33;11.25;;;4.38;;
64199;SDS011;50516;52.272;5.136;2022-12-07T03:00:13;9.85;;;5.30;;
64199;SDS011;50516;52.272;5.136;2022-12-07T03:07:54;9.43;;;4.00;;
64199;SDS011;50516;52.272;5.136;2022-12-07T03:10:35;10.52;;;4.10;;
64199;SDS011;50516;52.272;5.136;2022-12-07T03:13:16;12.02;;;4.70;;
64199;SDS011;50516;52.272;5.136;2022-12-07T03:16:10;10.43;;;5.07;;
64199;SDS011;50516;52.272;5.136;2022-12-07T03:18:51;7.80;;;3.35;;
64199;SDS011;50516;52.272;5.136;2022-12-07T03:21:22;9.52;;;3.30;;
64199;SDS011;50516;52.272;5.136;2022-12-07T03:23:52;10.35;;;4.40;;
64199;SDS011;50516;52.272;5.136;2022-12-07T03:26:21;7.60;;;3.33;;
64199;SDS011;50516;52.272;5.136;2022-12-07T03:28:51;6.05;;;3.00;;
64199;SDS011;50516;52.272;5.136;2022-12-07T03:36:50;6.20;;;3.45;;
64199;SDS011;50516;52.272;5.136;2022-12-07T03:39:33;6.80;;;3.10;;
64199;SDS011;50516;52.272;5.136;2022-12-07T03:42:03;6.15;;;2.92;;
64199;SDS011;50516;52.272;5.136;2022-12-07T03:44:32;6.45;;;2.70;;
64199;SDS011;50516;52.272;5.136;2022-12-07T03:49:52;8.65;;;2.85;;
64199;SDS011;50516;52.272;5.136;2022-12-07T03:55:05;6.50;;;2.63;;
64199;SDS011;50516;52.272;5.136;2022-12-07T03:57:36;7.35;;;3.80;;
64199;SDS011;50516;52.272;5.136;2022-12-07T04:00:04;7.15;;;3.08;;
64199;SDS011;50516;52.272;5.136;2022-12-07T04:02:31;12.00;;;4.32;;
64199;SDS011;50516;52.272;5.136;2022-12-07T04:04:57;8.27;;;2.90;;
64199;SDS011;50516;52.272;5.136;2022-12-07T04:07:23;6.75;;;3.53;;
64199;SDS011;50516;52.272;5.136;2022-12-07T04:09:48;7.22;;;2.97;;
64199;SDS011;50516;52.272;5.136;2022-12-07T04:12:14;7.63;;;3.47;;
64199;SDS011;50516;52.272;5.136;2022-12-07T04:14:39;7.85;;;3.45;;
64199;SDS011;50516;52.272;5.136;2022-12-07T04:17:05;11.25;;;2.80;;
64199;SDS011;50516;52.272;5.136;2022-12-07T04:19:31;7.88;;;3.20;;
64199;SDS011;50516;52.272;5.136;2022-12-07T04:21:59;8.98;;;2.63;;
64199;SDS011;50516;52.272;5.136;2022-12-07T04:24:26;6.78;;;2.10;;
64199;SDS011;50516;52.272;5.136;2022-12-07T04:26:51;7.80;;;2.60;;
64199;SDS011;50516;52.272;5.136;2022-12-07T04:29:17;7.10;;;2.13;;
64199;SDS011;50516;52.272;5.136;2022-12-07T04:31:43;11.32;;;2.67;;
64199;SDS011;50516;52.272;5.136;2022-12-07T04:34:08;10.63;;;3.38;;
64199;SDS011;50516;52.272;5.136;2022-12-07T04:36:34;7.72;;;2.47;;
64199;SDS011;50516;52.272;5.136;2022-12-07T04:39:00;8.15;;;3.13;;
64199;SDS011;50516;52.272;5.136;2022-12-07T04:41:26;8.13;;;2.50;;
64199;SDS011;50516;52.272;5.136;2022-12-07T04:46:21;6.72;;;2.22;;
64199;SDS011;50516;52.272;5.136;2022-12-07T04:48:47;6.95;;;2.50;;
64199;SDS011;50516;52.272;5.136;2022-12-07T04:51:13;6.80;;;2.38;;
64199;SDS011;50516;52.272;5.136;2022-12-07T04:53:43;7.55;;;1.98;;
64199;SDS011;50516;52.272;5.136;2022-12-07T04:56:08;5.32;;;2.47;;
64199;SDS011;50516;52.272;5.136;2022-12-07T04:58:34;6.32;;;2.88;;
64199;SDS011;50516;52.272;5.136;2022-12-07T05:00:59;5.57;;;2.72;;
64199;SDS011;50516;52.272;5.136;2022-12-07T05:03:24;5.70;;;2.00;;
64199;SDS011;50516;52.272;5.136;2022-12-07T05:05:49;6.75;;;1.92;;
64199;SDS011;50516;52.272;5.136;2022-12-07T05:08:15;5.97;;;2.88;;
64199;SDS011;50516;52.272;5.136;2022-12-07T05:10:40;8.68;;;1.88;;
64199;SDS011;50516;52.272;5.136;2022-12-07T05:13:05;7.50;;;2.47;;
64199;SDS011;50516;52.272;5.136;2022-12-07T05:15:31;10.98;;;2.22;;
64199;SDS011;50516;52.272;5.136;2022-12-07T05:17:56;3.38;;;1.63;;
64199;SDS011;50516;52.272;5.136;2022-12-07T05:20:21;3.40;;;1.80;;
64199;SDS011;50516;52.272;5.136;2022-12-07T05:22:47;7.95;;;2.35;;
64199;SDS011;50516;52.272;5.136;2022-12-07T05:25:12;7.55;;;2.60;;
64199;SDS011;50516;52.272;5.136;2022-12-07T05:27:37;10.52;;;2.45;;
64199;SDS011;50516;52.272;5.136;2022-12-07T05:30:03;6.93;;;2.03;;
64199;SDS011;50516;52.272;5.136;2022-12-07T05:32:30;7.15;;;2.13;;
64199;SDS011;50516;52.272;5.136;2022-12-07T05:34:55;4.65;;;2.15;;
64199;SDS011;50516;52.272;5.136;2022-12-07T05:37:20;4.18;;;2.03;;
64199;SDS011;50516;52.272;5.136;2022-12-07T05:39:46;3.42;;;1.77;;
64199;SDS011;50516;52.272;5.136;2022-12-07T05:42:11;9.95;;;2.15;;
64199;SDS011;50516;52.272;5.136;2022-12-07T05:44:37;4.53;;;2.17;;
64199;SDS011;50516;52.272;5.136;2022-12-07T05:47:02;9.20;;;2.22;;
64199;SDS011;50516;52.272;5.136;2022-12-07T05:49:28;6.72;;;2.10;;
64199;SDS011;50516;52.272;5.136;2022-12-07T05:51:53;8.00;;;2.75;;
64199;SDS011;50516;52.272;5.136;2022-12-07T05:54:18;5.75;;;2.22;;
64199;SDS011;50516;52.272;5.136;2022-12-07T05:56:44;9.38;;;2.40;;
64199;SDS011;50516;52.272;5.136;2022-12-07T05:59:09;12.18;;;2.55;;
64199;SDS011;50516;52.272;5.136;2022-12-07T06:02:00;12.35;;;2.53;;
64199;SDS011;50516;52.272;5.136;2022-12-07T06:04:32;6.32;;;2.13;;
64199;SDS011;50516;52.272;5.136;2022-12-07T06:06:59;7.18;;;3.20;;
64199;SDS011;50516;52.272;5.136;2022-12-07T06:09:26;5.18;;;1.80;;
64199;SDS011;50516;52.272;5.136;2022-12-07T06:11:53;5.53;;;2.00;;
64199;SDS011;50516;52.272;5.136;2022-12-07T06:14:37;7.00;;;2.70;;
64199;SDS011;50516;52.272;5.136;2022-12-07T06:17:03;5.35;;;2.50;;
64199;SDS011;50516;52.272;5.136;2022-12-07T06:19:28;8.45;;;2.80;;
64199;SDS011;50516;52.272;5.136;2022-12-07T06:21:54;8.20;;;2.38;;
64199;SDS011;50516;52.272;5.136;2022-12-07T06:24:19;7.43;;;2.25;;
64199;SDS011;50516;52.272;5.136;2022-12-07T06:26:45;5.65;;;2.25;;
64199;SDS011;50516;52.272;5.136;2022-12-07T06:29:10;6.25;;;2.40;;
64199;SDS011;50516;52.272;5.136;2022-12-07T06:31:36;8.73;;;2.38;;
64199;SDS011;50516;52.272;5.136;2022-12-07T06:34:09;9.05;;;2.30;;
64199;SDS011;50516;52.272;5.136;2022-12-07T06:36:37;10.48;;;3.05;;
64199;SDS011;50516;52.272;5.136;2022-12-07T06:39:02;9.20;;;2.80;;
64199;SDS011;50516;52.272;5.136;2022-12-07T06:41:28;9.65;;;2.42;;
64199;SDS011;50516;52.272;5.136;2022-12-07T06:43:54;9.57;;;3.75;;
64199;SDS011;50516;52.272;5.136;2022-12-07T06:46:19;8.43;;;2.63;;
64199;SDS011;50516;52.272;5.136;2022-12-07T06:48:45;3.30;;;1.83;;
64199;SDS011;50516;52.272;5.136;2022-12-07T06:51:10;11.60;;;2.35;;
64199;SDS011;50516;52.272;5.136;2022-12-07T06:53:36;8.27;;;2.85;;
64199;SDS011;50516;52.272;5.136;2022-12-07T06:56:02;7.30;;;3.28;;
64199;SDS011;50516;52.272;5.136;2022-12-07T06:58:27;8.15;;;2.78;;
64199;SDS011;50516;52.272;5.136;2022-12-07T07:00:53;18.83;;;3.47;;
64199;SDS011;50516;52.272;5.136;2022-12-07T07:03:18;9.02;;;2.88;;
64199;SDS011;50516;52.272;5.136;2022-12-07T07:05:44;11.23;;;2.75;;
64199;SDS011;50516;52.272;5.136;2022-12-07T07:08:10;6.05;;;2.50;;
64199;SDS011;50516;52.272;5.136;2022-12-07T07:10:36;10.15;;;2.80;;
64199;SDS011;50516;52.272;5.136;2022-12-07T07:13:02;8.75;;;2.95;;
64199;SDS011;50516;52.272;5.136;2022-12-07T07:15:28;5.72;;;2.83;;
64199;SDS011;50516;52.272;5.136;2022-12-07T07:17:54;7.25;;;2.80;;
64199;SDS011;50516;52.272;5.136;2022-12-07T07:20:19;5.32;;;2.47;;
64199;SDS011;50516;52.272;5.136;2022-12-07T07:22:44;5.18;;;2.85;;
64199;SDS011;50516;52.272;5.136;2022-12-07T07:25:10;6.72;;;2.55;;
64199;SDS011;50516;52.272;5.136;2022-12-07T07:27:35;12.07;;;3.20;;
64199;SDS011;50516;52.272;5.136;2022-12-07T07:30:01;8.20;;;2.13;;
64199;SDS011;50516;52.272;5.136;2022-12-07T07:32:27;6.60;;;2.95;;
64199;SDS011;50516;52.272;5.136;2022-12-07T07:34:52;15.57;;;3.72;;
64199;SDS011;50516;52.272;5.136;2022-12-07T07:37:18;6.65;;;2.50;;
64199;SDS011;50516;52.272;5.136;2022-12-07T07:39:43;6.43;;;2.70;;
64199;SDS011;50516;52.272;5.136;2022-12-07T07:42:09;5.45;;;3.35;;
64199;SDS011;50516;52.272;5.136;2022-12-07T07:44:34;6.68;;;3.33;;
64199;SDS011;50516;52.272;5.136;2022-12-07T07:47:00;12.48;;;4.20;;
64199;SDS011;50516;52.272;5.136;2022-12-07T07:49:25;9.77;;;3.58;;
64199;SDS011;50516;52.272;5.136;2022-12-07T07:51:51;7.63;;;3.67;;
64199;SDS011;50516;52.272;5.136;2022-12-07T07:54:16;9.90;;;3.22;;
64199;SDS011;50516;52.272;5.136;2022-12-07T07:56:41;9.98;;;3.10;;
64199;SDS011;50516;52.272;5.136;2022-12-07T07:59:07;9.23;;;2.90;;
64199;SDS011;50516;52.272;5.136;2022-12-07T08:01:33;8.50;;;2.60;;
64199;SDS011;50516;52.272;5.136;2022-12-07T08:03:58;10.18;;;2.85;;
64199;SDS011;50516;52.272;5.136;2022-12-07T08:06:24;6.75;;;3.28;;
64199;SDS011;50516;52.272;5.136;2022-12-07T08:08:49;12.35;;;2.90;;
64199;SDS011;50516;52.272;5.136;2022-12-07T08:11:14;9.75;;;2.75;;
64199;SDS011;50516;52.272;5.136;2022-12-07T08:13:40;10.05;;;2.88;;
64199;SDS011;50516;52.272;5.136;2022-12-07T08:16:06;4.55;;;2.80;;
64199;SDS011;50516;52.272;5.136;2022-12-07T08:18:37;8.13;;;2.70;;
64199;SDS011;50516;52.272;5.136;2022-12-07T08:21:04;9.35;;;3.13;;
64199;SDS011;50516;52.272;5.136;2022-12-07T08:23:30;13.90;;;3.88;;
64199;SDS011;50516;52.272;5.136;2022-12-07T08:25:59;9.32;;;2.90;;
64199;SDS011;50516;52.272;5.136;2022-12-07T08:28:32;7.82;;;2.88;;
64199;SDS011;50516;52.272;5.136;2022-12-07T08:31:05;8.10;;;3.13;;
64199;SDS011;50516;52.272;5.136;2022-12-07T08:33:33;6.57;;;2.67;;
64199;SDS011;50516;52.272;5.136;2022-12-07T08:36:00;11.57;;;2.92;;
64199;SDS011;50516;52.272;5.136;2022-12-07T08:38:26;6.90;;;2.58;;
64199;SDS011;50516;52.272;5.136;2022-12-07T08:40:55;8.60;;;3.08;;
64199;SDS011;50516;52.272;5.136;2022-12-07T08:43:21;10.30;;;2.85;;
64199;SDS011;50516;52.272;5.136;2022-12-07T08:45:47;6.78;;;2.25;;
64199;SDS011;50516;52.272;5.136;2022-12-07T08:48:18;15.45;;;5.80;;
64199;SDS011;50516;52.272;5.136;2022-12-07T08:50:47;12.73;;;3.10;;
64199;SDS011;50516;52.272;5.136;2022-12-07T08:53:13;8.63;;;2.70;;
64199;SDS011;50516;52.272;5.136;2022-12-07T08:55:39;10.82;;;3.17;;
64199;SDS011;50516;52.272;5.136;2022-12-07T08:58:04;8.60;;;2.80;;
64199;SDS011;50516;52.272;5.136;2022-12-07T09:00:30;9.18;;;2.78;;
64199;SDS011;50516;52.272;5.136;2022-12-07T09:02:55;7.25;;;2.92;;
64199;SDS011;50516;52.272;5.136;2022-12-07T09:05:20;7.47;;;2.72;;
64199;SDS011;50516;52.272;5.136;2022-12-07T09:07:47;6.22;;;2.95;;
64199;SDS011;50516;52.272;5.136;2022-12-07T09:10:16;6.35;;;1.83;;
64199;SDS011;50516;52.272;5.136;2022-12-07T09:12:42;9.88;;;3.03;;
64199;SDS011;50516;52.272;5.136;2022-12-07T09:15:07;5.38;;;2.30;;
64199;SDS011;50516;52.272;5.136;2022-12-07T09:17:33;7.47;;;2.20;;
64199;SDS011;50516;52.272;5.136;2022-12-07T09:19:59;8.45;;;2.70;;
64199;SDS011;50516;52.272;5.136;2022-12-07T09:22:29;7.03;;;2.28;;
64199;SDS011;50516;52.272;5.136;2022-12-07T09:24:56;8.25;;;2.63;;
64199;SDS011;50516;52.272;5.136;2022-12-07T09:27:22;8.18;;;2.33;;
64199;SDS011;50516;52.272;5.136;2022-12-07T09:29:47;6.85;;;2.50;;
64199;SDS011;50516;52.272;5.136;2022-12-07T09:32:13;4.20;;;2.33;;
64199;SDS011;50516;52.272;5.136;2022-12-07T09:34:38;4.15;;;1.73;;
64199;SDS011;50516;52.272;5.136;2022-12-07T09:37:04;6.10;;;2.38;;
64199;SDS011;50516;52.272;5.136;2022-12-07T09:39:29;10.65;;;2.00;;
64199;SDS011;50516;52.272;5.136;2022-12-07T09:41:56;8.90;;;2.60;;
64199;SDS011;50516;52.272;5.136;2022-12-07T09:44:24;7.72;;;2.75;;
64199;SDS011;50516;52.272;5.136;2022-12-07T09:46:50;4.82;;;2.30;;
64199;SDS011;50516;52.272;5.136;2022-12-07T09:49:18;5.05;;;2.20;;
64199;SDS011;50516;52.272;5.136;2022-12-07T09:51:46;6.90;;;2.38;;
64199;SDS011;50516;52.272;5.136;2022-12-07T09:54:13;6.05;;;2.17;;
64199;SDS011;50516;52.272;5.136;2022-12-07T09:56:40;6.90;;;2.30;;
64199;SDS011;50516;52.272;5.136;2022-12-07T09:59:09;6.70;;;2.00;;
64199;SDS011;50516;52.272;5.136;2022-12-07T10:01:41;10.73;;;2.60;;
64199;SDS011;50516;52.272;5.136;2022-12-07T10:04:25;4.63;;;2.08;;
64199;SDS011;50516;52.272;5.136;2022-12-07T10:06:51;10.75;;;2.97;;
64199;SDS011;50516;52.272;5.136;2022-12-07T10:09:18;9.00;;;2.80;;
64199;SDS011;50516;52.272;5.136;2022-12-07T10:11:57;9.43;;;2.70;;
64199;SDS011;50516;52.272;5.136;2022-12-07T10:14:35;6.43;;;2.22;;
64199;SDS011;50516;52.272;5.136;2022-12-07T10:17:05;4.55;;;2.25;;
64199;SDS011;50516;52.272;5.136;2022-12-07T10:20:02;12.57;;;3.28;;
64199;SDS011;50516;52.272;5.136;2022-12-07T10:22:58;8.20;;;2.30;;
64199;SDS011;50516;52.272;5.136;2022-12-07T10:25:39;12.63;;;3.13;;
64199;SDS011;50516;52.272;5.136;2022-12-07T10:31:19;8.02;;;3.35;;
64199;SDS011;50516;52.272;5.136;2022-12-07T10:33:28;8.73;;;2.97;;
64199;SDS011;50516;52.272;5.136;2022-12-07T10:36:15;9.35;;;2.85;;
64199;SDS011;50516;52.272;5.136;2022-12-07T10:39:02;5.55;;;2.35;;
64199;SDS011;50516;52.272;5.136;2022-12-07T10:42:00;6.53;;;2.30;;
64199;SDS011;50516;52.272;5.136;2022-12-07T10:44:28;9.40;;;3.10;;
64199;SDS011;50516;52.272;5.136;2022-12-07T10:47:08;11.70;;;3.10;;
64199;SDS011;50516;52.272;5.136;2022-12-07T10:52:45;7.22;;;2.78;;
64199;SDS011;50516;52.272;5.136;2022-12-07T11:01:11;7.53;;;2.45;;
64199;SDS011;50516;52.272;5.136;2022-12-07T11:09:49;9.07;;;2.60;;
64199;SDS011;50516;52.272;5.136;2022-12-07T11:12:36;10.43;;;2.90;;
64199;SDS011;50516;52.272;5.136;2022-12-07T11:34:15;7.80;;;2.47;;
64199;SDS011;50516;52.272;5.136;2022-12-07T11:36:51;9.65;;;3.13;;
64199;SDS011;50516;52.272;5.136;2022-12-07T11:41:55;8.63;;;2.17;;
64199;SDS011;50516;52.272;5.136;2022-12-07T11:44:47;12.90;;;3.33;;
64199;SDS011;50516;52.272;5.136;2022-12-07T11:47:30;12.23;;;2.78;;
64199;SDS011;50516;52.272;5.136;2022-12-07T11:50:14;8.27;;;3.00;;
64199;SDS011;50516;52.272;5.136;2022-12-07T11:52:49;10.27;;;3.17;;
64199;SDS011;50516;52.272;5.136;2022-12-07T11:55:29;10.85;;;2.85;;
64199;SDS011;50516;52.272;5.136;2022-12-07T11:58:21;11.77;;;2.92;;
64199;SDS011;50516;52.272;5.136;2022-12-07T12:00:48;13.48;;;3.10;;
64199;SDS011;50516;52.272;5.136;2022-12-07T12:03:20;8.10;;;3.10;;
64199;SDS011;50516;52.272;5.136;2022-12-07T12:05:55;13.07;;;3.35;;
64199;SDS011;50516;52.272;5.136;2022-12-07T12:08:29;13.18;;;2.88;;
64199;SDS011;50516;52.272;5.136;2022-12-07T12:21:46;5.95;;;3.00;;
64199;SDS011;50516;52.272;5.136;2022-12-07T12:24:20;3.42;;;1.52;;
64199;SDS011;50516;52.272;5.136;2022-12-07T12:26:50;3.38;;;1.50;;
64199;SDS011;50516;52.272;5.136;2022-12-07T12:29:23;3.92;;;1.40;;
64199;SDS011;50516;52.272;5.136;2022-12-07T12:32:13;4.13;;;2.08;;
64199;SDS011;50516;52.272;5.136;2022-12-07T12:34:57;2.22;;;1.08;;
64199;SDS011;50516;52.272;5.136;2022-12-07T12:37:41;7.10;;;1.60;;
64199;SDS011;50516;52.272;5.136;2022-12-07T12:42:49;1.33;;;0.93;;
64199;SDS011;50516;52.272;5.136;2022-12-07T12:47:57;5.40;;;1.60;;
64199;SDS011;50516;52.272;5.136;2022-12-07T12:50:25;5.57;;;1.40;;
64199;SDS011;50516;52.272;5.136;2022-12-07T12:55:53;5.38;;;2.00;;
64199;SDS011;50516;52.272;5.136;2022-12-07T12:58:28;5.15;;;1.27;;
64199;SDS011;50516;52.272;5.136;2022-12-07T13:03:58;4.47;;;1.55;;
64199;SDS011;50516;52.272;5.136;2022-12-07T13:08:50;3.58;;;1.27;;
64199;SDS011;50516;52.272;5.136;2022-12-07T13:11:24;7.13;;;1.90;;
64199;SDS011;50516;52.272;5.136;2022-12-07T13:16:59;4.75;;;2.08;;
64199;SDS011;50516;52.272;5.136;2022-12-07T13:20:06;6.50;;;2.28;;
64199;SDS011;50516;52.272;5.136;2022-12-07T13:28:02;4.20;;;1.73;;
64199;SDS011;50516;52.272;5.136;2022-12-07T13:30:39;5.80;;;1.60;;
64199;SDS011;50516;52.272;5.136;2022-12-07T13:33:15;5.00;;;1.55;;
64199;SDS011;50516;52.272;5.136;2022-12-07T13:35:42;6.57;;;1.17;;
64199;SDS011;50516;52.272;5.136;2022-12-07T13:43:49;8.38;;;2.72;;
64199;SDS011;50516;52.272;5.136;2022-12-07T13:46:18;5.20;;;1.92;;
64199;SDS011;50516;52.272;5.136;2022-12-07T13:48:50;9.13;;;1.92;;
64199;SDS011;50516;52.272;5.136;2022-12-07T13:51:24;3.53;;;1.95;;
64199;SDS011;50516;52.272;5.136;2022-12-07T13:54:01;5.28;;;1.80;;
64199;SDS011;50516;52.272;5.136;2022-12-07T13:56:35;2.05;;;1.38;;
64199;SDS011;50516;52.272;5.136;2022-12-07T13:59:01;5.82;;;1.90;;
64199;SDS011;50516;52.272;5.136;2022-12-07T14:01:28;5.97;;;1.83;;
64199;SDS011;50516;52.272;5.136;2022-12-07T14:04:16;5.45;;;2.22;;
64199;SDS011;50516;52.272;5.136;2022-12-07T14:06:49;3.92;;;1.27;;
64199;SDS011;50516;52.272;5.136;2022-12-07T14:11:50;3.42;;;1.33;;
64199;SDS011;50516;52.272;5.136;2022-12-07T14:14:19;4.32;;;1.67;;
64199;SDS011;50516;52.272;5.136;2022-12-07T14:19:52;7.75;;;1.80;;
64199;SDS011;50516;52.272;5.136;2022-12-07T14:22:37;4.00;;;1.23;;
64199;SDS011;50516;52.272;5.136;2022-12-07T14:27:37;5.35;;;1.67;;
64199;SDS011;50516;52.272;5.136;2022-12-07T14:30:03;4.57;;;1.73;;
64199;SDS011;50516;52.272;5.136;2022-12-07T14:32:30;8.88;;;2.60;;
64199;SDS011;50516;52.272;5.136;2022-12-07T14:35:00;3.67;;;1.80;;
64199;SDS011;50516;52.272;5.136;2022-12-07T14:37:26;4.13;;;1.48;;
64199;SDS011;50516;52.272;5.136;2022-12-07T14:39:53;3.90;;;1.08;;
64199;SDS011;50516;52.272;5.136;2022-12-07T14:42:18;6.05;;;2.05;;
64199;SDS011;50516;52.272;5.136;2022-12-07T14:44:44;4.72;;;1.70;;
64199;SDS011;50516;52.272;5.136;2022-12-07T14:47:10;3.33;;;1.50;;
64199;SDS011;50516;52.272;5.136;2022-12-07T14:49:36;5.88;;;1.15;;
64199;SDS011;50516;52.272;5.136;2022-12-07T14:52:02;3.17;;;1.15;;
64199;SDS011;50516;52.272;5.136;2022-12-07T14:54:30;4.60;;;1.40;;
64199;SDS011;50516;52.272;5.136;2022-12-07T14:56:57;4.15;;;1.45;;
64199;SDS011;50516;52.272;5.136;2022-12-07T14:59:22;2.45;;;1.23;;
64199;SDS011;50516;52.272;5.136;2022-12-07T15:01:47;4.20;;;1.30;;
64199;SDS011;50516;52.272;5.136;2022-12-07T15:04:13;4.32;;;1.70;;
64199;SDS011;50516;52.272;5.136;2022-12-07T15:06:38;3.85;;;1.40;;
64199;SDS011;50516;52.272;5.136;2022-12-07T15:09:04;3.30;;;1.48;;
64199;SDS011;50516;52.272;5.136;2022-12-07T15:11:29;5.47;;;2.78;;
64199;SDS011;50516;52.272;5.136;2022-12-07T15:13:55;9.90;;;3.30;;
64199;SDS011;50516;52.272;5.136;2022-12-07T15:16:32;9.18;;;5.25;;
64199;SDS011;50516;52.272;5.136;2022-12-07T15:18:58;9.38;;;4.80;;
64199;SDS011;50516;52.272;5.136;2022-12-07T15:21:24;10.45;;;5.32;;
64199;SDS011;50516;52.272;5.136;2022-12-07T15:23:50;10.77;;;5.20;;
64199;SDS011;50516;52.272;5.136;2022-12-07T15:26:24;11.75;;;5.45;;
64199;SDS011;50516;52.272;5.136;2022-12-07T15:28:49;8.65;;;4.68;;
64199;SDS011;50516;52.272;5.136;2022-12-07T15:31:15;9.32;;;4.50;;
64199;SDS011;50516;52.272;5.136;2022-12-07T15:33:42;7.20;;;4.20;;
64199;SDS011;50516;52.272;5.136;2022-12-07T15:36:08;9.98;;;4.05;;
64199;SDS011;50516;52.272;5.136;2022-12-07T15:38:46;7.53;;;3.38;;
64199;SDS011;50516;52.272;5.136;2022-12-07T15:41:12;7.47;;;2.90;;
64199;SDS011;50516;52.272;5.136;2022-12-07T15:43:37;11.30;;;2.67;;
64199;SDS011;50516;52.272;5.136;2022-12-07T15:46:21;8.68;;;2.25;;
64199;SDS011;50516;52.272;5.136;2022-12-07T15:49:00;9.73;;;2.38;;
64199;SDS011;50516;52.272;5.136;2022-12-07T15:51:26;7.55;;;2.30;;
64199;SDS011;50516;52.272;5.136;2022-12-07T15:53:52;5.63;;;2.00;;
64199;SDS011;50516;52.272;5.136;2022-12-07T15:56:18;5.55;;;1.90;;
64199;SDS011;50516;52.272;5.136;2022-12-07T15:58:45;9.55;;;3.00;;
64199;SDS011;50516;52.272;5.136;2022-12-07T16:01:11;5.75;;;2.13;;
64199;SDS011;50516;52.272;5.136;2022-12-07T16:03:38;5.43;;;2.58;;
64199;SDS011;50516;52.272;5.136;2022-12-07T16:06:03;7.72;;;2.20;;
64199;SDS011;50516;52.272;5.136;2022-12-07T16:08:29;8.20;;;2.20;;
64199;SDS011;50516;52.272;5.136;2022-12-07T16:10:55;3.22;;;2.00;;
64199;SDS011;50516;52.272;5.136;2022-12-07T16:13:20;4.28;;;2.50;;
64199;SDS011;50516;52.272;5.136;2022-12-07T16:15:46;7.97;;;2.03;;
64199;SDS011;50516;52.272;5.136;2022-12-07T16:18:11;8.02;;;3.22;;
64199;SDS011;50516;52.272;5.136;2022-12-07T16:20:40;17.80;;;11.18;;
64199;SDS011;50516;52.272;5.136;2022-12-07T16:23:06;14.77;;;9.25;;
64199;SDS011;50516;52.272;5.136;2022-12-07T16:25:32;11.45;;;5.97;;
64199;SDS011;50516;52.272;5.136;2022-12-07T16:27:58;9.85;;;6.00;;
64199;SDS011;50516;52.272;5.136;2022-12-07T16:30:23;11.02;;;7.22;;
64199;SDS011;50516;52.272;5.136;2022-12-07T16:32:59;11.23;;;6.75;;
64199;SDS011;50516;52.272;5.136;2022-12-07T16:35:24;15.40;;;8.05;;
64199;SDS011;50516;52.272;5.136;2022-12-07T16:37:50;14.23;;;7.90;;
64199;SDS011;50516;52.272;5.136;2022-12-07T16:40:15;10.77;;;6.00;;
64199;SDS011;50516;52.272;5.136;2022-12-07T16:42:44;14.10;;;6.68;;
64199;SDS011;50516;52.272;5.136;2022-12-07T16:45:12;12.90;;;6.88;;
64199;SDS011;50516;52.272;5.136;2022-12-07T16:47:38;13.20;;;6.28;;
64199;SDS011;50516;52.272;5.136;2022-12-07T16:50:05;13.98;;;5.82;;
64199;SDS011;50516;52.272;5.136;2022-12-07T16:52:32;11.25;;;6.03;;
64199;SDS011;50516;52.272;5.136;2022-12-07T16:55:01;12.40;;;4.18;;